createdAt,value
2023-06-30T00:00:47.405Z,5.91
2023-06-30T00:01:47.425Z,6.25
2023-06-30T00:02:47.625Z,5.97
2023-06-30T00:03:47.451Z,6.70
2023-06-30T00:04:47.421Z,6.71
2023-06-30T00:05:47.762Z,6.62
2023-06-30T00:06:47.434Z,6.86
2023-06-30T00:07:47.444Z,6.44
2023-06-30T00:08:47.445Z,6.19
2023-06-30T00:09:47.451Z,6.00
2023-06-30T00:10:47.474Z,6.32
2023-06-30T00:11:47.503Z,6.54
2023-06-30T00:12:47.545Z,7.46
2023-06-30T00:13:47.521Z,6.57
2023-06-30T00:14:47.537Z,6.60
2023-06-30T00:15:47.800Z,6.26
2023-06-30T00:16:47.540Z,6.53
2023-06-30T00:17:47.596Z,7.07
2023-06-30T00:18:47.536Z,6.34
2023-06-30T00:19:47.507Z,6.01
2023-06-30T00:20:47.499Z,6.75
2023-06-30T00:21:47.577Z,6.79
2023-06-30T00:22:47.558Z,7.02
2023-06-30T00:23:47.617Z,6.37
2023-06-30T00:24:47.677Z,7.13
2023-06-30T00:25:47.679Z,6.87
2023-06-30T00:26:47.713Z,6.57
2023-06-30T00:27:47.758Z,7.40
2023-06-30T00:28:47.796Z,5.40
2023-06-30T00:29:47.835Z,5.81
2023-06-30T00:30:47.918Z,6.42
2023-06-30T00:31:47.929Z,6.75
2023-06-30T00:32:47.972Z,6.27
2023-06-30T00:33:48.012Z,6.38
2023-06-30T00:34:48.039Z,6.31
2023-06-30T00:35:48.091Z,6.36
2023-06-30T00:36:48.134Z,6.56
2023-06-30T00:37:48.168Z,6.38
2023-06-30T00:38:48.216Z,6.83
2023-06-30T00:39:48.224Z,7.02
2023-06-30T00:40:48.260Z,7.14
2023-06-30T00:41:48.297Z,6.73
2023-06-30T00:42:48.342Z,7.00
2023-06-30T00:43:48.380Z,6.25
2023-06-30T00:44:48.419Z,6.66
2023-06-30T00:45:48.470Z,7.40
2023-06-30T00:46:48.567Z,5.57
2023-06-30T00:47:48.611Z,6.72
2023-06-30T00:48:48.598Z,7.06
2023-06-30T00:49:48.642Z,6.57
2023-06-30T00:50:48.642Z,5.62
2023-06-30T00:51:48.661Z,6.08
2023-06-30T00:52:48.687Z,6.65
2023-06-30T00:53:48.768Z,6.37
2023-06-30T00:54:48.787Z,7.43
2023-06-30T00:55:48.893Z,5.91
2023-06-30T00:56:48.821Z,7.00
2023-06-30T00:57:48.854Z,6.87
2023-06-30T00:58:48.843Z,6.55
2023-06-30T00:59:48.907Z,6.56
2023-06-30T01:00:48.968Z,6.77
2023-06-30T01:01:49.026Z,7.26
2023-06-30T01:02:50.002Z,6.32
2023-06-30T01:03:49.088Z,6.61
2023-06-30T01:04:49.097Z,6.94
2023-06-30T01:05:49.090Z,7.21
2023-06-30T01:06:49.133Z,6.92
2023-06-30T01:07:49.164Z,6.91
2023-06-30T01:08:49.177Z,6.09
2023-06-30T01:09:49.227Z,6.21
2023-06-30T01:10:49.221Z,7.44
2023-06-30T01:11:49.196Z,6.74
2023-06-30T01:12:49.262Z,6.58
2023-06-30T01:13:49.296Z,7.07
2023-06-30T01:14:49.324Z,6.74
2023-06-30T01:15:49.279Z,6.89
2023-06-30T01:16:49.436Z,6.25
2023-06-30T01:17:49.411Z,6.76
2023-06-30T01:18:49.372Z,6.65
2023-06-30T01:19:49.402Z,6.68
2023-06-30T01:20:49.392Z,6.84
2023-06-30T01:21:49.389Z,6.34
2023-06-30T01:22:49.379Z,6.67
2023-06-30T01:23:49.414Z,7.36
2023-06-30T01:24:49.430Z,7.08
2023-06-30T01:25:49.826Z,7.12
2023-06-30T01:26:49.450Z,7.88
2023-06-30T01:27:49.487Z,6.72
2023-06-30T01:28:49.481Z,7.36
2023-06-30T01:29:49.533Z,7.12
2023-06-30T01:30:49.546Z,7.24
2023-06-30T01:31:49.509Z,6.15
2023-06-30T01:32:49.572Z,6.78
2023-06-30T01:33:49.569Z,6.55
2023-06-30T01:34:49.615Z,7.48
2023-06-30T01:35:49.646Z,6.30
2023-06-30T01:36:49.617Z,7.06
2023-06-30T01:37:49.658Z,6.92
2023-06-30T01:38:49.680Z,7.09
2023-06-30T01:39:49.651Z,6.75
2023-06-30T01:40:49.667Z,8.01
2023-06-30T01:41:49.667Z,6.70
2023-06-30T01:42:49.674Z,7.25
2023-06-30T01:43:49.691Z,6.41
2023-06-30T01:44:49.739Z,6.95
2023-06-30T01:45:49.774Z,7.16
2023-06-30T01:46:49.816Z,7.40
2023-06-30T01:47:49.810Z,7.74
2023-06-30T01:48:49.794Z,7.04
2023-06-30T01:49:49.783Z,7.29
2023-06-30T01:50:49.806Z,6.32
2023-06-30T01:51:49.816Z,7.28
2023-06-30T01:52:49.857Z,7.07
2023-06-30T01:53:49.876Z,6.42
2023-06-30T01:54:49.878Z,7.29
2023-06-30T01:55:49.906Z,6.95
2023-06-30T01:56:49.965Z,7.02
2023-06-30T01:57:49.952Z,6.96
2023-06-30T01:58:49.919Z,7.83
2023-06-30T01:59:49.952Z,7.13
2023-06-30T02:00:50.004Z,7.02
2023-06-30T02:01:50.028Z,7.70
2023-06-30T02:02:50.214Z,6.91
2023-06-30T02:03:50.116Z,7.39
2023-06-30T02:04:50.145Z,7.06
2023-06-30T02:05:50.170Z,7.51
2023-06-30T02:06:50.169Z,7.08
2023-06-30T02:07:50.164Z,8.35
2023-06-30T02:08:50.270Z,8.21
2023-06-30T02:09:50.208Z,7.50
2023-06-30T02:10:50.197Z,7.68
2023-06-30T02:11:50.189Z,7.35
2023-06-30T02:12:50.199Z,8.23
2023-06-30T02:13:50.234Z,7.33
2023-06-30T02:14:50.265Z,7.06
2023-06-30T02:15:50.318Z,8.06
2023-06-30T02:16:50.382Z,7.15
2023-06-30T02:17:50.382Z,7.13
2023-06-30T02:18:50.327Z,7.26
2023-06-30T02:19:50.318Z,7.41
2023-06-30T02:20:50.307Z,6.89
2023-06-30T02:21:50.329Z,8.33
2023-06-30T02:22:50.285Z,8.24
2023-06-30T02:23:50.348Z,7.34
2023-06-30T02:24:50.361Z,7.42
2023-06-30T02:25:50.353Z,7.38
2023-06-30T02:26:50.344Z,7.33
2023-06-30T02:27:50.365Z,7.57
2023-06-30T02:28:50.369Z,7.94
2023-06-30T02:29:50.440Z,8.09
2023-06-30T02:30:50.383Z,6.95
2023-06-30T02:31:50.494Z,7.64
2023-06-30T02:32:50.409Z,8.32
2023-06-30T02:33:50.444Z,6.66
2023-06-30T02:34:50.432Z,8.02
2023-06-30T02:35:50.416Z,8.91
2023-06-30T02:36:50.433Z,8.52
2023-06-30T02:37:50.437Z,7.40
2023-06-30T02:38:50.472Z,7.93
2023-06-30T02:39:50.472Z,7.46
2023-06-30T02:40:50.476Z,7.52
2023-06-30T02:41:50.465Z,8.23
2023-06-30T02:42:50.474Z,7.49
2023-06-30T02:43:50.473Z,7.08
2023-06-30T02:44:50.561Z,7.20
2023-06-30T02:45:50.600Z,7.49
2023-06-30T02:46:50.577Z,7.31
2023-06-30T02:47:50.643Z,6.97
2023-06-30T02:48:50.551Z,7.97
2023-06-30T02:49:50.593Z,7.12
2023-06-30T02:50:50.551Z,7.66
2023-06-30T02:51:50.570Z,7.34
2023-06-30T02:52:50.539Z,7.09
2023-06-30T02:53:50.542Z,7.61
2023-06-30T02:54:50.549Z,7.17
2023-06-30T02:55:50.570Z,7.46
2023-06-30T02:56:50.599Z,8.13
2023-06-30T02:57:50.581Z,8.75
2023-06-30T02:58:50.588Z,7.58
2023-06-30T02:59:50.588Z,8.07
2023-06-30T03:00:50.840Z,7.60
2023-06-30T03:01:50.760Z,8.54
2023-06-30T03:02:50.836Z,7.30
2023-06-30T03:03:50.791Z,7.24
2023-06-30T03:04:50.747Z,8.34
2023-06-30T03:05:50.786Z,8.38
2023-06-30T03:06:50.796Z,7.90
2023-06-30T03:07:50.770Z,7.79
2023-06-30T03:08:50.773Z,7.57
2023-06-30T03:09:50.750Z,7.66
2023-06-30T03:10:50.764Z,8.28
2023-06-30T03:11:50.773Z,7.68
2023-06-30T03:12:50.775Z,6.97
2023-06-30T03:13:50.793Z,7.65
2023-06-30T03:14:50.750Z,8.17
2023-06-30T03:15:50.878Z,8.36
2023-06-30T03:16:50.906Z,8.09
2023-06-30T03:17:50.904Z,8.12
2023-06-30T03:18:50.836Z,7.77
2023-06-30T03:19:50.837Z,7.55
2023-06-30T03:20:50.913Z,8.25
2023-06-30T03:21:50.904Z,7.99
2023-06-30T03:22:50.932Z,7.82
2023-06-30T03:23:50.892Z,7.59
2023-06-30T03:24:50.908Z,8.12
2023-06-30T03:25:50.971Z,7.71
2023-06-30T03:26:51.091Z,8.16
2023-06-30T03:27:51.196Z,8.36
2023-06-30T03:28:51.224Z,8.51
2023-06-30T03:29:51.189Z,8.78
2023-06-30T03:30:51.213Z,8.61
2023-06-30T03:31:51.145Z,8.47
2023-06-30T03:32:51.307Z,8.86
2023-06-30T03:33:51.240Z,7.43
2023-06-30T03:34:51.242Z,7.97
2023-06-30T03:35:51.218Z,7.96
2023-06-30T03:36:51.281Z,8.30
2023-06-30T03:37:51.232Z,7.95
2023-06-30T03:38:51.248Z,7.52
2023-06-30T03:39:51.242Z,7.59
2023-06-30T03:40:51.242Z,7.91
2023-06-30T03:41:51.236Z,9.74
2023-06-30T03:42:51.233Z,8.92
2023-06-30T03:43:51.243Z,8.01
2023-06-30T03:44:51.253Z,7.98
2023-06-30T03:45:51.271Z,9.03
2023-06-30T03:46:51.260Z,7.95
2023-06-30T03:47:51.280Z,7.77
2023-06-30T03:48:51.348Z,8.03
2023-06-30T03:49:51.320Z,8.06
2023-06-30T03:50:51.359Z,8.19
2023-06-30T03:51:51.324Z,7.82
2023-06-30T03:52:51.315Z,7.83
2023-06-30T03:53:51.310Z,7.71
2023-06-30T03:54:51.410Z,7.96
2023-06-30T03:55:51.426Z,7.59
2023-06-30T03:56:51.413Z,8.08
2023-06-30T03:57:51.426Z,8.65
2023-06-30T03:58:51.383Z,6.99
2023-06-30T03:59:51.422Z,7.49
2023-06-30T04:00:51.499Z,7.76
2023-06-30T04:01:51.475Z,8.28
2023-06-30T04:02:51.536Z,8.36
2023-06-30T04:03:51.576Z,7.50
2023-06-30T04:04:51.481Z,7.44
2023-06-30T04:05:51.527Z,7.23
2023-06-30T04:06:51.665Z,8.15
2023-06-30T04:07:51.648Z,8.11
2023-06-30T04:08:51.570Z,8.79
2023-06-30T04:09:51.557Z,8.25
2023-06-30T04:10:51.534Z,8.27
2023-06-30T04:11:51.545Z,7.85
2023-06-30T04:12:51.552Z,8.62
2023-06-30T04:13:51.561Z,7.30
2023-06-30T04:14:51.532Z,8.19
2023-06-30T04:15:51.624Z,9.22
2023-06-30T04:16:51.615Z,7.85
2023-06-30T04:17:51.748Z,8.47
2023-06-30T04:18:51.813Z,7.96
2023-06-30T04:19:51.909Z,9.09
2023-06-30T04:20:51.926Z,8.58
2023-06-30T04:21:51.899Z,8.34
2023-06-30T04:22:51.887Z,8.80
2023-06-30T04:23:51.895Z,8.93
2023-06-30T04:24:51.925Z,7.55
2023-06-30T04:25:51.931Z,8.15
2023-06-30T04:26:51.938Z,8.23
2023-06-30T04:27:51.937Z,8.15
2023-06-30T04:28:51.905Z,9.05
2023-06-30T04:29:51.920Z,8.57
2023-06-30T04:30:52.008Z,7.89
2023-06-30T04:31:52.047Z,8.56
2023-06-30T04:32:52.043Z,8.29
2023-06-30T04:33:52.036Z,7.98
2023-06-30T04:34:52.020Z,8.22
2023-06-30T04:35:52.071Z,7.96
2023-06-30T04:36:52.111Z,8.79
2023-06-30T04:37:52.118Z,8.73
2023-06-30T04:38:52.156Z,9.60
2023-06-30T04:39:52.100Z,8.87
2023-06-30T04:40:52.091Z,8.13
2023-06-30T04:41:52.099Z,8.37
2023-06-30T04:42:52.209Z,7.92
2023-06-30T04:43:52.177Z,8.30
2023-06-30T04:44:52.200Z,9.00
2023-06-30T04:45:52.213Z,8.12
2023-06-30T04:46:52.168Z,8.56
2023-06-30T04:47:52.217Z,7.83
2023-06-30T04:48:52.269Z,8.43
2023-06-30T04:49:52.404Z,8.88
2023-06-30T04:50:52.440Z,7.90
2023-06-30T04:51:52.462Z,8.61
2023-06-30T04:52:52.467Z,9.17
2023-06-30T04:53:52.438Z,8.14
2023-06-30T04:54:52.437Z,8.04
2023-06-30T04:55:52.443Z,8.34
2023-06-30T04:56:52.551Z,7.80
2023-06-30T04:57:52.546Z,7.90
2023-06-30T04:58:52.539Z,8.64
2023-06-30T04:59:52.513Z,9.74
2023-06-30T05:00:52.553Z,9.42
2023-06-30T05:01:52.561Z,9.19
2023-06-30T05:02:52.653Z,8.91
2023-06-30T05:03:52.725Z,8.52
2023-06-30T05:04:52.688Z,8.70
2023-06-30T05:05:52.615Z,8.43
2023-06-30T05:06:52.712Z,8.64
2023-06-30T05:07:52.650Z,7.90
2023-06-30T05:08:52.631Z,7.85
2023-06-30T05:09:52.641Z,8.73
2023-06-30T05:10:52.646Z,9.72
2023-06-30T05:11:52.657Z,8.93
2023-06-30T05:12:52.726Z,9.91
2023-06-30T05:13:52.731Z,8.71
2023-06-30T05:14:52.740Z,8.66
2023-06-30T05:15:52.840Z,9.18
2023-06-30T05:16:52.801Z,9.89
2023-06-30T05:17:52.753Z,8.41
2023-06-30T05:18:52.746Z,8.74
2023-06-30T05:19:52.766Z,9.26
2023-06-30T05:20:52.775Z,8.33
2023-06-30T05:21:52.793Z,9.73
2023-06-30T05:22:52.760Z,9.11
2023-06-30T05:23:52.895Z,9.29
2023-06-30T05:24:52.956Z,9.46
2023-06-30T05:25:52.967Z,9.04
2023-06-30T05:26:52.964Z,9.84
2023-06-30T05:27:52.952Z,9.03
2023-06-30T05:29:04.071Z,10.17
2023-06-30T05:29:53.950Z,9.53
2023-06-30T05:30:52.938Z,9.35
2023-06-30T05:31:52.989Z,9.12
2023-06-30T05:32:53.047Z,9.27
2023-06-30T05:33:52.917Z,8.46
2023-06-30T05:34:52.924Z,9.08
2023-06-30T05:35:52.905Z,8.96
2023-06-30T05:36:52.905Z,9.83
2023-06-30T05:37:52.916Z,8.25
2023-06-30T05:38:52.898Z,9.69
2023-06-30T05:39:52.903Z,9.55
2023-06-30T05:40:52.899Z,9.23
2023-06-30T05:41:52.883Z,9.43
2023-06-30T05:42:52.884Z,8.35
2023-06-30T05:43:52.933Z,8.99
2023-06-30T05:44:53.010Z,10.18
2023-06-30T05:45:52.993Z,8.48
2023-06-30T05:46:53.018Z,10.04
2023-06-30T05:47:53.056Z,9.67
2023-06-30T05:48:53.022Z,10.28
2023-06-30T05:49:53.049Z,9.60
2023-06-30T05:50:53.101Z,8.58
2023-06-30T05:51:53.154Z,9.03
2023-06-30T05:52:53.157Z,9.27
2023-06-30T05:53:53.128Z,10.44
2023-06-30T05:54:53.117Z,8.51
2023-06-30T05:55:53.206Z,9.27
2023-06-30T05:56:53.194Z,9.47
2023-06-30T05:57:53.191Z,9.29
2023-06-30T05:58:53.203Z,8.93
2023-06-30T05:59:53.213Z,8.78
2023-06-30T06:00:53.214Z,9.16
2023-06-30T06:01:53.869Z,9.71
2023-06-30T06:02:53.379Z,9.62
2023-06-30T06:03:53.479Z,9.18
2023-06-30T06:04:53.442Z,10.04
2023-06-30T06:05:53.501Z,9.61
2023-06-30T06:06:53.516Z,10.39
2023-06-30T06:07:53.501Z,9.78
2023-06-30T06:08:53.473Z,8.96
2023-06-30T06:09:53.476Z,9.53
2023-06-30T06:10:53.508Z,8.85
2023-06-30T06:11:53.597Z,9.60
2023-06-30T06:12:53.716Z,10.49
2023-06-30T06:13:53.747Z,9.80
2023-06-30T06:14:53.757Z,10.06
2023-06-30T06:15:53.777Z,10.23
2023-06-30T06:16:53.824Z,10.35
2023-06-30T06:17:53.781Z,9.84
2023-06-30T06:18:53.882Z,9.86
2023-06-30T06:19:53.840Z,9.83
2023-06-30T06:20:53.858Z,9.77
2023-06-30T06:21:53.881Z,9.50
2023-06-30T06:22:53.892Z,9.61
2023-06-30T06:23:53.938Z,10.22
2023-06-30T06:24:53.949Z,10.55
2023-06-30T06:25:54.063Z,9.57
2023-06-30T06:26:54.087Z,9.92
2023-06-30T06:27:54.051Z,10.43
2023-06-30T06:28:54.060Z,8.74
2023-06-30T06:29:54.081Z,9.71
2023-06-30T06:30:54.152Z,9.92
2023-06-30T06:31:54.099Z,9.30
2023-06-30T06:32:54.154Z,8.37
2023-06-30T06:33:56.020Z,9.13
2023-06-30T06:34:54.096Z,10.91
2023-06-30T06:35:54.120Z,9.62
2023-06-30T06:36:54.173Z,9.75
2023-06-30T06:37:54.151Z,9.24
2023-06-30T06:38:54.181Z,10.23
2023-06-30T06:39:54.178Z,8.90
2023-06-30T06:40:54.182Z,9.72
2023-06-30T06:41:54.210Z,9.05
2023-06-30T06:42:54.206Z,8.30
2023-06-30T06:43:54.209Z,9.76
2023-06-30T06:44:54.221Z,9.32
2023-06-30T06:45:54.329Z,9.76
2023-06-30T06:46:54.305Z,9.25
2023-06-30T06:47:54.376Z,9.90
2023-06-30T06:48:54.336Z,8.65
2023-06-30T06:49:54.326Z,9.57
2023-06-30T06:50:54.364Z,10.27
2023-06-30T06:51:54.402Z,9.56
2023-06-30T06:52:54.417Z,9.52
2023-06-30T06:53:54.451Z,9.65
2023-06-30T06:54:54.459Z,9.35
2023-06-30T06:55:54.510Z,9.57
2023-06-30T06:56:54.533Z,8.75
2023-06-30T06:57:54.594Z,9.23
2023-06-30T06:58:54.575Z,9.10
2023-06-30T06:59:54.610Z,9.85
2023-06-30T07:00:54.635Z,9.17
2023-06-30T07:01:54.686Z,9.18
2023-06-30T07:02:54.721Z,10.20
2023-06-30T07:03:54.942Z,8.86
2023-06-30T07:04:54.895Z,10.26
2023-06-30T07:05:55.023Z,9.76
2023-06-30T07:06:55.148Z,9.06
2023-06-30T07:07:55.788Z,9.38
2023-06-30T07:08:55.201Z,9.76
2023-06-30T07:09:55.247Z,9.19
2023-06-30T07:10:55.258Z,8.02
2023-06-30T07:11:55.245Z,8.91
2023-06-30T07:12:55.296Z,9.06
2023-06-30T07:13:55.335Z,9.54
2023-06-30T07:14:55.336Z,8.86
2023-06-30T07:15:55.422Z,9.08
2023-06-30T07:16:55.327Z,8.95
2023-06-30T07:17:55.433Z,9.75
2023-06-30T07:18:55.440Z,9.09
2023-06-30T07:19:55.390Z,9.13
2023-06-30T07:20:55.393Z,8.77
2023-06-30T07:21:55.394Z,9.08
2023-06-30T07:22:55.405Z,8.87
2023-06-30T07:23:55.389Z,8.99
2023-06-30T07:24:55.404Z,8.30
2023-06-30T07:25:55.389Z,9.74
2023-06-30T07:26:55.403Z,10.37
2023-06-30T07:27:55.437Z,9.81
2023-06-30T07:28:55.443Z,8.50
2023-06-30T07:29:55.456Z,8.98
2023-06-30T07:30:55.495Z,8.88
2023-06-30T07:31:55.473Z,8.98
2023-06-30T07:32:55.527Z,9.44
2023-06-30T07:33:55.491Z,8.66
2023-06-30T07:34:55.498Z,8.99
2023-06-30T07:35:55.483Z,9.34
2023-06-30T07:36:55.495Z,8.54
2023-06-30T07:37:55.510Z,9.37
2023-06-30T07:38:55.526Z,9.84
2023-06-30T07:40:00.118Z,9.32
2023-06-30T07:40:57.625Z,9.28
2023-06-30T07:41:55.695Z,8.24
2023-06-30T07:42:55.620Z,9.82
2023-06-30T07:43:55.580Z,10.45
2023-06-30T07:44:55.586Z,8.38
2023-06-30T07:45:55.620Z,8.61
2023-06-30T07:46:55.575Z,9.28
2023-06-30T07:47:55.601Z,8.18
2023-06-30T07:48:55.593Z,7.86
2023-06-30T07:49:55.555Z,8.25
2023-06-30T07:51:07.765Z,8.84
2023-06-30T07:51:56.522Z,9.42
2023-06-30T07:52:55.557Z,9.76
2023-06-30T07:53:55.530Z,9.19
2023-06-30T07:54:55.552Z,9.11
2023-06-30T07:55:55.542Z,8.69
2023-06-30T07:56:55.518Z,8.97
2023-06-30T07:57:55.481Z,8.37
2023-06-30T07:58:55.502Z,9.25
2023-06-30T07:59:56.506Z,9.80
2023-06-30T08:00:55.471Z,9.74
2023-06-30T08:01:55.487Z,8.85
2023-06-30T08:02:55.688Z,8.36
2023-06-30T08:03:55.730Z,9.16
2023-06-30T08:04:55.809Z,8.59
2023-06-30T08:05:55.948Z,7.27
2023-06-30T08:06:55.679Z,8.26
2023-06-30T08:07:55.747Z,10.00
2023-06-30T08:08:55.624Z,9.55
2023-06-30T08:09:55.636Z,7.93
2023-06-30T08:10:55.711Z,9.84
2023-06-30T08:11:55.760Z,9.12
2023-06-30T08:12:55.794Z,8.29
2023-06-30T08:13:55.848Z,8.70
2023-06-30T08:14:55.909Z,7.90
2023-06-30T08:15:56.265Z,8.01
2023-06-30T08:16:56.019Z,8.09
2023-06-30T08:17:59.054Z,8.28
2023-06-30T08:18:56.104Z,7.84
2023-06-30T08:19:56.157Z,9.13
2023-06-30T08:20:56.058Z,9.37
2023-06-30T08:21:56.081Z,9.02
2023-06-30T08:22:56.238Z,8.64
2023-06-30T08:23:56.027Z,8.22
2023-06-30T08:24:56.043Z,8.19
2023-06-30T08:25:56.051Z,9.33
2023-06-30T08:26:56.050Z,8.17
2023-06-30T08:27:56.018Z,8.91
2023-06-30T08:28:56.015Z,9.19
2023-06-30T08:29:56.032Z,8.91
2023-06-30T08:30:56.035Z,8.48
2023-06-30T08:31:55.982Z,9.66
2023-06-30T08:32:57.317Z,8.74
2023-06-30T08:33:55.969Z,8.34
2023-06-30T08:34:55.974Z,9.31
2023-06-30T08:35:55.998Z,8.23
2023-06-30T08:36:55.975Z,8.56
2023-06-30T08:37:55.945Z,7.98
2023-06-30T08:38:55.930Z,8.29
2023-06-30T08:39:55.958Z,7.93
2023-06-30T08:40:55.931Z,7.60
2023-06-30T08:41:55.960Z,8.46
2023-06-30T08:42:55.942Z,8.22
2023-06-30T08:43:55.936Z,8.61
2023-06-30T08:44:55.921Z,8.12
2023-06-30T08:45:55.917Z,8.93
2023-06-30T08:46:55.991Z,7.82
2023-06-30T08:47:55.896Z,8.58
2023-06-30T08:48:55.891Z,9.32
2023-06-30T08:49:55.900Z,8.76
2023-06-30T08:50:55.909Z,9.19
2023-06-30T08:51:55.883Z,8.18
2023-06-30T08:52:55.874Z,8.25
2023-06-30T08:53:55.872Z,8.89
2023-06-30T08:54:55.854Z,8.77
2023-06-30T08:55:55.873Z,9.11
2023-06-30T08:56:55.857Z,8.35
2023-06-30T08:57:55.819Z,7.21
2023-06-30T08:58:55.838Z,7.65
2023-06-30T08:59:55.838Z,8.44
2023-06-30T09:00:55.884Z,8.29
2023-06-30T09:01:55.854Z,7.64
2023-06-30T09:02:55.836Z,8.28
2023-06-30T09:03:55.889Z,8.09
2023-06-30T09:04:55.880Z,7.39
2023-06-30T09:05:55.814Z,8.31
2023-06-30T09:06:55.815Z,8.07
2023-06-30T09:07:55.774Z,8.26
2023-06-30T09:08:55.790Z,7.79
2023-06-30T09:09:55.764Z,7.86
2023-06-30T09:10:55.754Z,7.95
2023-06-30T09:11:55.761Z,7.89
2023-06-30T09:12:55.748Z,8.16
2023-06-30T09:13:55.760Z,7.14
2023-06-30T09:14:55.780Z,8.14
2023-06-30T09:15:55.777Z,8.18
2023-06-30T09:16:55.762Z,7.79
2023-06-30T09:17:55.834Z,7.98
2023-06-30T09:18:55.705Z,7.33
2023-06-30T09:19:55.704Z,7.81
2023-06-30T09:20:55.739Z,7.37
2023-06-30T09:21:55.726Z,8.36
2023-06-30T09:22:57.057Z,7.87
2023-06-30T09:23:55.702Z,7.05
2023-06-30T09:24:55.652Z,7.99
2023-06-30T09:25:55.680Z,8.22
2023-06-30T09:26:55.714Z,7.28
2023-06-30T09:27:55.661Z,7.35
2023-06-30T09:28:55.679Z,7.04
2023-06-30T09:29:55.644Z,7.59
2023-06-30T09:30:55.638Z,8.06
2023-06-30T09:31:55.646Z,7.35
2023-06-30T09:32:55.764Z,7.48
2023-06-30T09:33:55.666Z,7.44
2023-06-30T09:34:55.614Z,7.40
2023-06-30T09:35:55.603Z,7.34
2023-06-30T09:36:55.613Z,7.18
2023-06-30T09:37:55.636Z,6.89
2023-06-30T09:38:55.585Z,8.58
2023-06-30T09:39:55.593Z,8.03
2023-06-30T09:40:55.583Z,7.63
2023-06-30T09:41:55.596Z,7.81
2023-06-30T09:42:55.577Z,7.42
2023-06-30T09:43:55.569Z,7.84
2023-06-30T09:44:55.576Z,8.18
2023-06-30T09:45:55.630Z,8.27
2023-06-30T09:46:55.559Z,7.82
2023-06-30T09:47:55.571Z,7.06
2023-06-30T09:48:55.534Z,6.70
2023-06-30T09:49:55.604Z,7.10
2023-06-30T09:50:55.544Z,7.36
2023-06-30T09:51:55.545Z,7.21
2023-06-30T09:52:55.484Z,7.35
2023-06-30T09:53:55.532Z,7.26
2023-06-30T09:54:55.575Z,7.90
2023-06-30T09:55:55.841Z,7.27
2023-06-30T09:56:55.669Z,7.14
2023-06-30T09:57:55.707Z,7.99
2023-06-30T09:58:55.737Z,8.07
2023-06-30T09:59:55.773Z,7.74
2023-06-30T10:00:55.853Z,8.16
2023-06-30T10:01:55.968Z,8.11
2023-06-30T10:02:55.934Z,7.50
2023-06-30T10:03:56.255Z,7.19
2023-06-30T10:04:55.951Z,7.83
2023-06-30T10:05:56.383Z,7.40
2023-06-30T10:06:56.005Z,7.42
2023-06-30T10:07:56.023Z,7.60
2023-06-30T10:08:56.059Z,7.87
2023-06-30T10:09:56.066Z,7.57
2023-06-30T10:10:56.126Z,6.36
2023-06-30T10:11:56.099Z,7.73
2023-06-30T10:12:56.119Z,7.33
2023-06-30T10:13:56.103Z,7.46
2023-06-30T10:14:56.160Z,7.37
2023-06-30T10:15:56.165Z,7.23
2023-06-30T10:16:56.221Z,7.38
2023-06-30T10:17:56.455Z,7.98
2023-06-30T10:18:56.293Z,7.35
2023-06-30T10:19:56.261Z,8.25
2023-06-30T10:20:56.347Z,7.40
2023-06-30T10:21:56.355Z,7.08
2023-06-30T10:22:56.422Z,7.38
2023-06-30T10:23:56.470Z,7.63
2023-06-30T10:24:56.486Z,8.23
2023-06-30T10:25:56.545Z,7.50
2023-06-30T10:26:56.551Z,8.44
2023-06-30T10:27:56.589Z,8.56
2023-06-30T10:28:56.666Z,8.66
2023-06-30T10:29:56.674Z,8.56
2023-06-30T10:30:56.893Z,7.64
2023-06-30T10:31:56.782Z,7.48
2023-06-30T10:32:56.856Z,8.17
2023-06-30T10:33:57.043Z,8.82
2023-06-30T10:34:56.885Z,8.10
2023-06-30T10:35:57.369Z,7.30
2023-06-30T10:36:56.998Z,8.64
2023-06-30T10:37:57.069Z,8.86
2023-06-30T10:38:57.080Z,8.99
2023-06-30T10:39:57.163Z,8.03
2023-06-30T10:40:57.407Z,7.85
2023-06-30T10:41:57.288Z,8.22
2023-06-30T10:42:57.315Z,8.86
2023-06-30T10:43:57.350Z,7.84
2023-06-30T10:44:57.437Z,8.40
2023-06-30T10:45:57.480Z,8.09
2023-06-30T10:46:57.561Z,9.14
2023-06-30T10:47:57.562Z,8.87
2023-06-30T10:48:57.632Z,8.94
2023-06-30T10:49:57.688Z,8.88
2023-06-30T10:50:57.755Z,7.80
2023-06-30T10:51:57.795Z,9.67
2023-06-30T10:52:57.814Z,8.64
2023-06-30T10:53:57.908Z,8.67
2023-06-30T10:54:58.026Z,8.07
2023-06-30T10:55:58.027Z,9.05
2023-06-30T10:56:58.057Z,8.02
2023-06-30T10:57:58.107Z,8.99
2023-06-30T10:58:58.160Z,8.69
2023-06-30T10:59:58.222Z,8.37
2023-06-30T11:00:58.327Z,8.51
2023-06-30T11:01:58.333Z,9.02
2023-06-30T11:02:58.677Z,9.89
2023-06-30T11:03:58.737Z,8.87
2023-06-30T11:04:58.562Z,9.67
2023-06-30T11:05:58.550Z,8.92
2023-06-30T11:06:58.671Z,8.27
2023-06-30T11:07:58.655Z,9.94
2023-06-30T11:08:58.690Z,9.13
2023-06-30T11:09:58.751Z,8.90
2023-06-30T11:10:58.812Z,8.81
2023-06-30T11:11:58.846Z,8.62
2023-06-30T11:12:58.931Z,9.75
2023-06-30T11:13:58.962Z,8.88
2023-06-30T11:14:59.041Z,9.16
2023-06-30T11:15:59.088Z,8.38
2023-06-30T11:16:59.138Z,9.80
2023-06-30T11:17:59.281Z,9.11
2023-06-30T11:18:59.380Z,8.75
2023-06-30T11:19:59.288Z,9.98
2023-06-30T11:20:59.332Z,9.02
2023-06-30T11:21:59.393Z,9.14
2023-06-30T11:22:59.436Z,8.56
2023-06-30T11:23:59.621Z,9.18
2023-06-30T11:24:59.562Z,8.26
2023-06-30T11:25:59.669Z,10.38
2023-06-30T11:26:59.682Z,9.93
2023-06-30T11:27:59.799Z,9.88
2023-06-30T11:28:59.796Z,9.39
2023-06-30T11:29:59.809Z,9.06
2023-06-30T11:30:59.905Z,9.91
2023-06-30T11:31:59.889Z,9.61
2023-06-30T11:33:00.002Z,9.60
2023-06-30T11:34:00.012Z,10.15
2023-06-30T11:35:00.088Z,9.92
2023-06-30T11:36:00.137Z,10.37
2023-06-30T11:37:00.179Z,9.88
2023-06-30T11:38:00.250Z,9.84
2023-06-30T11:39:00.278Z,9.44
2023-06-30T11:40:00.366Z,9.99
2023-06-30T11:41:00.384Z,8.86
2023-06-30T11:42:00.473Z,9.04
2023-06-30T11:43:00.503Z,10.00
2023-06-30T11:44:00.562Z,9.97
2023-06-30T11:45:00.633Z,9.72
2023-06-30T11:46:02.657Z,9.30
2023-06-30T11:47:00.800Z,9.90
2023-06-30T11:48:00.851Z,8.73
2023-06-30T11:49:00.884Z,9.55
2023-06-30T11:50:00.928Z,9.59
2023-06-30T11:51:01.061Z,9.48
2023-06-30T11:52:02.318Z,9.87
2023-06-30T11:53:01.136Z,10.01
2023-06-30T11:54:01.159Z,8.61
2023-06-30T11:55:01.235Z,10.05
2023-06-30T11:56:01.413Z,9.27
2023-06-30T11:57:01.388Z,9.70
2023-06-30T11:58:03.139Z,9.85
2023-06-30T11:59:01.481Z,10.90
2023-06-30T12:00:01.552Z,9.70
2023-06-30T12:01:01.629Z,9.21
2023-06-30T12:02:01.690Z,9.05
2023-06-30T12:03:01.819Z,8.77
2023-06-30T12:04:01.940Z,9.38
2023-06-30T12:05:01.891Z,9.66
2023-06-30T12:06:01.973Z,9.88
2023-06-30T12:07:01.991Z,9.76
2023-06-30T12:08:02.030Z,10.13
2023-06-30T12:09:02.096Z,9.09
2023-06-30T12:10:02.160Z,10.13
2023-06-30T12:11:02.228Z,9.87
2023-06-30T12:12:02.296Z,8.78
2023-06-30T12:13:02.330Z,8.98
2023-06-30T12:14:02.407Z,9.15
2023-06-30T12:15:02.451Z,8.72
2023-06-30T12:16:03.000Z,9.27
2023-06-30T12:17:02.609Z,8.07
2023-06-30T12:18:02.709Z,9.63
2023-06-30T12:19:02.697Z,9.10
2023-06-30T12:20:03.444Z,11.46
2023-06-30T12:21:02.826Z,9.81
2023-06-30T12:22:02.905Z,9.38
2023-06-30T12:23:02.950Z,9.45
2023-06-30T12:24:02.988Z,9.91
2023-06-30T12:25:03.072Z,9.62
2023-06-30T12:26:03.138Z,10.25
2023-06-30T12:27:03.198Z,9.26
2023-06-30T12:28:03.261Z,10.96
2023-06-30T12:29:03.295Z,11.26
2023-06-30T12:30:03.329Z,10.04
2023-06-30T12:31:03.421Z,9.26
2023-06-30T12:32:03.461Z,9.12
2023-06-30T12:33:03.639Z,9.69
2023-06-30T12:34:03.693Z,9.13
2023-06-30T12:35:07.646Z,9.69
2023-06-30T12:36:03.975Z,9.84
2023-06-30T12:37:03.598Z,9.71
2023-06-30T12:38:03.630Z,10.21
2023-06-30T12:39:03.621Z,9.79
2023-06-30T12:40:03.597Z,9.81
2023-06-30T12:41:03.590Z,9.98
2023-06-30T12:42:03.634Z,9.06
2023-06-30T12:43:03.567Z,9.87
2023-06-30T12:44:03.656Z,9.68
2023-06-30T12:45:03.549Z,10.14
2023-06-30T12:46:03.966Z,9.79
2023-06-30T12:47:03.565Z,9.94
2023-06-30T12:48:03.597Z,10.40
2023-06-30T12:49:03.546Z,10.00
2023-06-30T12:50:03.534Z,9.85
2023-06-30T12:51:03.553Z,8.62
2023-06-30T12:52:04.101Z,9.54
2023-06-30T12:53:03.506Z,9.83
2023-06-30T12:54:03.514Z,9.77
2023-06-30T12:55:03.508Z,9.91
2023-06-30T12:56:03.506Z,9.83
2023-06-30T12:57:03.496Z,8.79
2023-06-30T12:58:03.519Z,9.94
2023-06-30T12:59:03.484Z,9.14
2023-06-30T13:00:03.525Z,9.69
2023-06-30T13:01:10.989Z,9.95
2023-06-30T13:02:03.543Z,10.64
2023-06-30T13:03:03.607Z,9.89
2023-06-30T13:04:03.585Z,9.56
2023-06-30T13:05:03.485Z,9.66
2023-06-30T13:06:03.988Z,10.84
2023-06-30T13:07:03.602Z,10.51
2023-06-30T13:08:03.505Z,10.07
2023-06-30T13:09:03.565Z,9.94
2023-06-30T13:10:03.482Z,10.83
2023-06-30T13:11:04.012Z,9.95
2023-06-30T13:12:03.497Z,10.86
2023-06-30T13:13:03.457Z,9.26
2023-06-30T13:14:03.482Z,10.86
2023-06-30T13:15:03.486Z,11.68
2023-06-30T13:16:03.516Z,10.63
2023-06-30T13:17:03.471Z,10.87